sensor_id;sensor_type;location;lat;lon;timestamp;temperature;humidity
3648;DHT22;1840;48.892;15.312;2022-07-06T00:01:54;14.20;99.90
3648;DHT22;1840;48.892;15.312;2022-07-06T00:04:22;14.20;99.90
3648;DHT22;1840;48.892;15.312;2022-07-06T00:06:50;14.20;99.90
3648;DHT22;1840;48.892;15.312;2022-07-06T00:09:19;14.10;99.90
3648;DHT22;1840;48.892;15.312;2022-07-06T00:11:47;14.10;99.90
3648;DHT22;1840;48.892;15.312;2022-07-06T00:14:17;13.90;99.90
3648;DHT22;1840;48.892;15.312;2022-07-06T00:16:45;13.80;99.90
3648;DHT22;1840;48.892;15.312;2022-07-06T00:19:13;13.50;99.90
3648;DHT22;1840;48.892;15.312;2022-07-06T00:21:41;13.70;99.90
3648;DHT22;1840;48.892;15.312;2022-07-06T00:24:10;13.70;99.90
3648;DHT22;1840;48.892;15.312;2022-07-06T00:26:38;13.60;99.90
3648;DHT22;1840;48.892;15.312;2022-07-06T00:29:07;13.80;99.90
3648;DHT22;1840;48.892;15.312;2022-07-06T00:31:36;13.80;99.90
3648;DHT22;1840;48.892;15.312;2022-07-06T00:34:04;13.70;99.90
3648;DHT22;1840;48.892;15.312;2022-07-06T00:36:32;13.80;99.90
3648;DHT22;1840;48.892;15.312;2022-07-06T00:39:00;13.80;99.90
3648;DHT22;1840;48.892;15.312;2022-07-06T00:41:28;13.80;99.90
3648;DHT22;1840;48.892;15.312;2022-07-06T00:43:57;13.90;99.90
3648;DHT22;1840;48.892;15.312;2022-07-06T00:46:28;14.00;99.90
3648;DHT22;1840;48.892;15.312;2022-07-06T00:48:58;13.90;99.90
3648;DHT22;1840;48.892;15.312;2022-07-06T00:51:31;13.80;99.90
3648;DHT22;1840;48.892;15.312;2022-07-06T00:54:03;13.70;99.90
3648;DHT22;1840;48.892;15.312;2022-07-06T00:56:32;13.80;99.90
3648;DHT22;1840;48.892;15.312;2022-07-06T00:59:00;13.70;99.90
3648;DHT22;1840;48.892;15.312;2022-07-06T01:01:29;13.70;99.90
3648;DHT22;1840;48.892;15.312;2022-07-06T01:03:58;13.70;99.90
3648;DHT22;1840;48.892;15.312;2022-07-06T01:06:26;13.70;99.90
3648;DHT22;1840;48.892;15.312;2022-07-06T01:08:55;13.70;99.90
3648;DHT22;1840;48.892;15.312;2022-07-06T01:11:23;13.70;99.90
3648;DHT22;1840;48.892;15.312;2022-07-06T01:13:52;13.70;99.90
3648;DHT22;1840;48.892;15.312;2022-07-06T01:16:20;13.70;99.90
3648;DHT22;1840;48.892;15.312;2022-07-06T01:18:48;13.70;99.90
3648;DHT22;1840;48.892;15.312;2022-07-06T01:21:18;13.70;99.90
3648;DHT22;1840;48.892;15.312;2022-07-06T01:23:47;13.60;99.80
3648;DHT22;1840;48.892;15.312;2022-07-06T01:26:17;13.60;99.90
3648;DHT22;1840;48.892;15.312;2022-07-06T01:28:46;13.50;99.80
3648;DHT22;1840;48.892;15.312;2022-07-06T01:31:15;13.30;99.60
3648;DHT22;1840;48.892;15.312;2022-07-06T01:33:44;13.20;99.80
3648;DHT22;1840;48.892;15.312;2022-07-06T01:36:12;13.20;99.40
3648;DHT22;1840;48.892;15.312;2022-07-06T01:38:46;13.10;99.60
3648;DHT22;1840;48.892;15.312;2022-07-06T01:41:14;13.10;99.70
3648;DHT22;1840;48.892;15.312;2022-07-06T01:43:42;13.10;99.50
3648;DHT22;1840;48.892;15.312;2022-07-06T01:46:11;13.10;99.70
3648;DHT22;1840;48.892;15.312;2022-07-06T01:48:40;13.10;99.80
3648;DHT22;1840;48.892;15.312;2022-07-06T01:51:08;13.10;99.80
3648;DHT22;1840;48.892;15.312;2022-07-06T01:53:37;13.10;99.80
3648;DHT22;1840;48.892;15.312;2022-07-06T01:56:07;13.10;99.70
3648;DHT22;1840;48.892;15.312;2022-07-06T01:58:36;13.10;99.90
3648;DHT22;1840;48.892;15.312;2022-07-06T02:01:07;13.10;99.80
3648;DHT22;1840;48.892;15.312;2022-07-06T02:03:35;13.00;99.60
3648;DHT22;1840;48.892;15.312;2022-07-06T02:06:05;13.00;99.90
3648;DHT22;1840;48.892;15.312;2022-07-06T02:08:34;13.00;99.90
3648;DHT22;1840;48.892;15.312;2022-07-06T02:11:03;13.10;99.80
3648;DHT22;1840;48.892;15.312;2022-07-06T02:13:32;13.10;99.60
3648;DHT22;1840;48.892;15.312;2022-07-06T02:16:02;13.00;99.60
3648;DHT22;1840;48.892;15.312;2022-07-06T02:18:31;12.80;99.30
3648;DHT22;1840;48.892;15.312;2022-07-06T02:20:59;12.70;99.40
3648;DHT22;1840;48.892;15.312;2022-07-06T02:23:27;12.60;99.10
3648;DHT22;1840;48.892;15.312;2022-07-06T02:25:55;12.50;99.40
3648;DHT22;1840;48.892;15.312;2022-07-06T02:28:24;12.60;99.30
3648;DHT22;1840;48.892;15.312;2022-07-06T02:30:54;12.50;99.10
3648;DHT22;1840;48.892;15.312;2022-07-06T02:33:22;12.50;99.40
3648;DHT22;1840;48.892;15.312;2022-07-06T02:35:50;12.50;99.20
3648;DHT22;1840;48.892;15.312;2022-07-06T02:38:18;12.50;99.20
3648;DHT22;1840;48.892;15.312;2022-07-06T02:40:47;12.40;99.30
3648;DHT22;1840;48.892;15.312;2022-07-06T02:43:15;12.40;99.50
3648;DHT22;1840;48.892;15.312;2022-07-06T02:45:43;12.40;99.50
3648;DHT22;1840;48.892;15.312;2022-07-06T02:48:12;12.40;99.40
3648;DHT22;1840;48.892;15.312;2022-07-06T02:50:41;12.30;99.60
3648;DHT22;1840;48.892;15.312;2022-07-06T02:53:09;12.30;99.40
3648;DHT22;1840;48.892;15.312;2022-07-06T02:55:37;12.40;99.70
3648;DHT22;1840;48.892;15.312;2022-07-06T02:58:05;12.40;99.60
3648;DHT22;1840;48.892;15.312;2022-07-06T03:00:33;12.40;99.60
3648;DHT22;1840;48.892;15.312;2022-07-06T03:03:01;12.20;99.90
3648;DHT22;1840;48.892;15.312;2022-07-06T03:05:31;12.10;99.90
3648;DHT22;1840;48.892;15.312;2022-07-06T03:07:59;12.10;99.80
3648;DHT22;1840;48.892;15.312;2022-07-06T03:10:27;12.00;99.70
3648;DHT22;1840;48.892;15.312;2022-07-06T03:12:55;12.00;99.70
3648;DHT22;1840;48.892;15.312;2022-07-06T03:15:23;12.00;99.80
3648;DHT22;1840;48.892;15.312;2022-07-06T03:17:51;11.90;99.90
3648;DHT22;1840;48.892;15.312;2022-07-06T03:20:20;11.60;99.80
3648;DHT22;1840;48.892;15.312;2022-07-06T03:22:49;11.80;99.90
3648;DHT22;1840;48.892;15.312;2022-07-06T03:25:17;11.80;99.90
3648;DHT22;1840;48.892;15.312;2022-07-06T03:27:45;12.00;99.90
3648;DHT22;1840;48.892;15.312;2022-07-06T03:30:13;12.10;99.90
3648;DHT22;1840;48.892;15.312;2022-07-06T03:32:41;12.00;99.90
3648;DHT22;1840;48.892;15.312;2022-07-06T03:35:09;12.00;99.90
3648;DHT22;1840;48.892;15.312;2022-07-06T03:37:37;12.00;99.90
3648;DHT22;1840;48.892;15.312;2022-07-06T03:40:08;12.10;99.90
3648;DHT22;1840;48.892;15.312;2022-07-06T03:42:37;12.20;99.90
3648;DHT22;1840;48.892;15.312;2022-07-06T03:45:06;12.40;99.90
3648;DHT22;1840;48.892;15.312;2022-07-06T03:47:34;12.50;99.90
3648;DHT22;1840;48.892;15.312;2022-07-06T03:50:02;12.50;99.90
3648;DHT22;1840;48.892;15.312;2022-07-06T03:52:30;12.60;99.90
3648;DHT22;1840;48.892;15.312;2022-07-06T03:54:58;12.70;99.90
3648;DHT22;1840;48.892;15.312;2022-07-06T03:57:28;12.80;99.90
3648;DHT22;1840;48.892;15.312;2022-07-06T03:59:56;12.80;99.90
3648;DHT22;1840;48.892;15.312;2022-07-06T04:02:24;12.90;99.90
3648;DHT22;1840;48.892;15.312;2022-07-06T04:04:53;12.90;99.90
3648;DHT22;1840;48.892;15.312;2022-07-06T04:07:21;13.00;99.90
3648;DHT22;1840;48.892;15.312;2022-07-06T04:09:49;12.90;99.90
3648;DHT22;1840;48.892;15.312;2022-07-06T04:12:17;12.50;99.90
3648;DHT22;1840;48.892;15.312;2022-07-06T04:14:47;12.50;99.90
3648;DHT22;1840;48.892;15.312;2022-07-06T04:17:15;12.70;99.90
3648;DHT22;1840;48.892;15.312;2022-07-06T04:20:01;12.90;99.90
3648;DHT22;1840;48.892;15.312;2022-07-06T04:22:29;13.10;99.90
3648;DHT22;1840;48.892;15.312;2022-07-06T04:24:57;13.20;99.90
3648;DHT22;1840;48.892;15.312;2022-07-06T04:27:25;13.40;99.90
3648;DHT22;1840;48.892;15.312;2022-07-06T04:29:55;13.50;99.90
3648;DHT22;1840;48.892;15.312;2022-07-06T04:32:24;13.50;99.90
3648;DHT22;1840;48.892;15.312;2022-07-06T04:34:52;13.40;99.90
3648;DHT22;1840;48.892;15.312;2022-07-06T04:37:20;13.50;99.90
3648;DHT22;1840;48.892;15.312;2022-07-06T04:39:48;13.40;99.90
3648;DHT22;1840;48.892;15.312;2022-07-06T04:42:16;13.40;99.90
3648;DHT22;1840;48.892;15.312;2022-07-06T04:44:44;13.30;99.90
3648;DHT22;1840;48.892;15.312;2022-07-06T04:47:14;13.20;99.90
3648;DHT22;1840;48.892;15.312;2022-07-06T04:49:42;13.30;99.90
3648;DHT22;1840;48.892;15.312;2022-07-06T04:52:10;13.40;99.90
3648;DHT22;1840;48.892;15.312;2022-07-06T04:54:38;13.40;99.90
3648;DHT22;1840;48.892;15.312;2022-07-06T04:57:07;13.40;99.90
3648;DHT22;1840;48.892;15.312;2022-07-06T04:59:38;13.40;99.90
3648;DHT22;1840;48.892;15.312;2022-07-06T05:02:07;13.40;99.90
3648;DHT22;1840;48.892;15.312;2022-07-06T05:04:36;13.40;99.90
3648;DHT22;1840;48.892;15.312;2022-07-06T05:07:05;13.50;99.90
3648;DHT22;1840;48.892;15.312;2022-07-06T05:09:32;13.50;99.90
3648;DHT22;1840;48.892;15.312;2022-07-06T05:12:01;13.40;99.90
3648;DHT22;1840;48.892;15.312;2022-07-06T05:14:29;13.20;99.90
3648;DHT22;1840;48.892;15.312;2022-07-06T05:16:57;13.20;99.90
3648;DHT22;1840;48.892;15.312;2022-07-06T05:19:29;13.30;99.90
3648;DHT22;1840;48.892;15.312;2022-07-06T05:21:58;13.20;99.90
3648;DHT22;1840;48.892;15.312;2022-07-06T05:24:26;12.70;99.90
3648;DHT22;1840;48.892;15.312;2022-07-06T05:26:54;12.50;99.90
3648;DHT22;1840;48.892;15.312;2022-07-06T05:29:22;12.50;99.90
3648;DHT22;1840;48.892;15.312;2022-07-06T05:31:50;12.20;99.90
3648;DHT22;1840;48.892;15.312;2022-07-06T05:34:19;12.20;99.90
3648;DHT22;1840;48.892;15.312;2022-07-06T05:36:47;12.40;99.90
3648;DHT22;1840;48.892;15.312;2022-07-06T05:39:16;12.50;99.90
3648;DHT22;1840;48.892;15.312;2022-07-06T05:41:46;12.60;99.90
3648;DHT22;1840;48.892;15.312;2022-07-06T05:44:14;12.50;99.90
3648;DHT22;1840;48.892;15.312;2022-07-06T05:46:42;12.80;99.90
3648;DHT22;1840;48.892;15.312;2022-07-06T05:49:10;13.00;99.90
3648;DHT22;1840;48.892;15.312;2022-07-06T05:51:56;13.30;99.90
3648;DHT22;1840;48.892;15.312;2022-07-06T05:54:26;13.70;99.90
3648;DHT22;1840;48.892;15.312;2022-07-06T05:56:54;13.80;99.90
3648;DHT22;1840;48.892;15.312;2022-07-06T05:59:22;14.00;99.90
3648;DHT22;1840;48.892;15.312;2022-07-06T06:01:50;14.00;99.90
3648;DHT22;1840;48.892;15.312;2022-07-06T06:04:18;14.20;99.90
3648;DHT22;1840;48.892;15.312;2022-07-06T06:06:47;14.40;99.90
3648;DHT22;1840;48.892;15.312;2022-07-06T06:09:15;14.50;99.90
3648;DHT22;1840;48.892;15.312;2022-07-06T06:11:45;14.70;99.90
3648;DHT22;1840;48.892;15.312;2022-07-06T06:14:13;15.10;99.90
3648;DHT22;1840;48.892;15.312;2022-07-06T06:16:41;15.20;99.90
3648;DHT22;1840;48.892;15.312;2022-07-06T06:19:09;15.30;99.90
3648;DHT22;1840;48.892;15.312;2022-07-06T06:21:37;15.40;99.90
3648;DHT22;1840;48.892;15.312;2022-07-06T06:24:06;15.30;99.90
3648;DHT22;1840;48.892;15.312;2022-07-06T06:26:34;15.40;99.90
3648;DHT22;1840;48.892;15.312;2022-07-06T06:29:03;15.50;98.60
3648;DHT22;1840;48.892;15.312;2022-07-06T06:31:31;15.60;99.20
3648;DHT22;1840;48.892;15.312;2022-07-06T06:34:07;15.70;99.50
3648;DHT22;1840;48.892;15.312;2022-07-06T06:36:35;16.10;99.10
3648;DHT22;1840;48.892;15.312;2022-07-06T06:39:03;16.30;98.80
3648;DHT22;1840;48.892;15.312;2022-07-06T06:41:31;16.50;98.50
3648;DHT22;1840;48.892;15.312;2022-07-06T06:43:59;16.70;98.30
3648;DHT22;1840;48.892;15.312;2022-07-06T06:46:28;16.70;98.60
3648;DHT22;1840;48.892;15.312;2022-07-06T06:48:57;16.80;98.50
3648;DHT22;1840;48.892;15.312;2022-07-06T06:51:25;17.00;98.70
3648;DHT22;1840;48.892;15.312;2022-07-06T06:53:53;17.00;98.10
3648;DHT22;1840;48.892;15.312;2022-07-06T06:56:21;17.20;98.00
3648;DHT22;1840;48.892;15.312;2022-07-06T06:58:49;17.20;98.30
3648;DHT22;1840;48.892;15.312;2022-07-06T07:01:39;17.30;98.10
3648;DHT22;1840;48.892;15.312;2022-07-06T07:04:07;17.20;97.60
3648;DHT22;1840;48.892;15.312;2022-07-06T07:06:35;16.80;97.00
3648;DHT22;1840;48.892;15.312;2022-07-06T07:09:03;16.60;97.40
3648;DHT22;1840;48.892;15.312;2022-07-06T07:11:32;16.40;97.20
3648;DHT22;1840;48.892;15.312;2022-07-06T07:14:00;16.30;97.40
3648;DHT22;1840;48.892;15.312;2022-07-06T07:16:28;16.10;97.00
3648;DHT22;1840;48.892;15.312;2022-07-06T07:18:58;16.10;97.90
3648;DHT22;1840;48.892;15.312;2022-07-06T07:21:26;16.10;97.70
3648;DHT22;1840;48.892;15.312;2022-07-06T07:23:54;16.10;97.70
3648;DHT22;1840;48.892;15.312;2022-07-06T07:26:22;16.20;97.80
3648;DHT22;1840;48.892;15.312;2022-07-06T07:28:50;16.40;97.90
3648;DHT22;1840;48.892;15.312;2022-07-06T07:31:18;16.60;97.30
3648;DHT22;1840;48.892;15.312;2022-07-06T07:33:46;16.70;97.90
3648;DHT22;1840;48.892;15.312;2022-07-06T07:36:22;16.70;97.40
3648;DHT22;1840;48.892;15.312;2022-07-06T07:38:50;16.60;97.20
3648;DHT22;1840;48.892;15.312;2022-07-06T07:41:18;16.60;96.90
3648;DHT22;1840;48.892;15.312;2022-07-06T07:43:46;16.60;97.00
3648;DHT22;1840;48.892;15.312;2022-07-06T07:46:14;16.70;97.10
3648;DHT22;1840;48.892;15.312;2022-07-06T07:48:42;16.60;96.70
3648;DHT22;1840;48.892;15.312;2022-07-06T07:51:10;16.70;97.10
3648;DHT22;1840;48.892;15.312;2022-07-06T07:53:40;16.70;95.90
3648;DHT22;1840;48.892;15.312;2022-07-06T07:56:08;16.50;96.70
3648;DHT22;1840;48.892;15.312;2022-07-06T07:58:37;16.70;97.00
3648;DHT22;1840;48.892;15.312;2022-07-06T08:01:05;16.90;96.70
3648;DHT22;1840;48.892;15.312;2022-07-06T08:03:33;16.70;96.80
3648;DHT22;1840;48.892;15.312;2022-07-06T08:06:01;16.90;96.80
3648;DHT22;1840;48.892;15.312;2022-07-06T08:08:29;16.90;96.40
3648;DHT22;1840;48.892;15.312;2022-07-06T08:10:59;16.40;96.80
3648;DHT22;1840;48.892;15.312;2022-07-06T08:13:45;16.50;96.50
3648;DHT22;1840;48.892;15.312;2022-07-06T08:16:14;16.50;96.20
3648;DHT22;1840;48.892;15.312;2022-07-06T08:18:42;16.40;96.80
3648;DHT22;1840;48.892;15.312;2022-07-06T08:21:10;16.30;96.50
3648;DHT22;1840;48.892;15.312;2022-07-06T08:23:55;16.50;96.50
3648;DHT22;1840;48.892;15.312;2022-07-06T08:26:26;16.60;96.30
3648;DHT22;1840;48.892;15.312;2022-07-06T08:28:54;16.80;95.50
3648;DHT22;1840;48.892;15.312;2022-07-06T08:31:22;17.10;96.00
3648;DHT22;1840;48.892;15.312;2022-07-06T08:34:10;17.20;96.60
3648;DHT22;1840;48.892;15.312;2022-07-06T08:36:39;17.30;95.50
3648;DHT22;1840;48.892;15.312;2022-07-06T08:39:07;17.60;95.60
3648;DHT22;1840;48.892;15.312;2022-07-06T08:41:38;17.70;94.60
3648;DHT22;1840;48.892;15.312;2022-07-06T08:44:08;17.90;94.50
3648;DHT22;1840;48.892;15.312;2022-07-06T08:46:38;17.90;94.40
3648;DHT22;1840;48.892;15.312;2022-07-06T08:49:07;17.90;94.00
3648;DHT22;1840;48.892;15.312;2022-07-06T08:51:36;18.10;94.50
3648;DHT22;1840;48.892;15.312;2022-07-06T08:54:04;18.10;94.00
3648;DHT22;1840;48.892;15.312;2022-07-06T08:56:33;18.10;93.80
3648;DHT22;1840;48.892;15.312;2022-07-06T08:59:02;18.20;93.10
3648;DHT22;1840;48.892;15.312;2022-07-06T09:01:31;18.20;93.70
3648;DHT22;1840;48.892;15.312;2022-07-06T09:04:01;18.40;93.70
3648;DHT22;1840;48.892;15.312;2022-07-06T09:06:31;18.50;93.30
3648;DHT22;1840;48.892;15.312;2022-07-06T09:09:02;18.60;94.10
3648;DHT22;1840;48.892;15.312;2022-07-06T09:11:31;18.50;92.80
3648;DHT22;1840;48.892;15.312;2022-07-06T09:13:59;18.30;93.30
3648;DHT22;1840;48.892;15.312;2022-07-06T09:16:29;18.50;93.50
3648;DHT22;1840;48.892;15.312;2022-07-06T09:19:07;18.70;93.10
3648;DHT22;1840;48.892;15.312;2022-07-06T09:21:36;19.00;94.00
3648;DHT22;1840;48.892;15.312;2022-07-06T09:24:07;19.00;93.20
3648;DHT22;1840;48.892;15.312;2022-07-06T09:26:36;18.80;93.00
3648;DHT22;1840;48.892;15.312;2022-07-06T09:29:05;18.70;93.40
3648;DHT22;1840;48.892;15.312;2022-07-06T09:31:35;18.80;93.90
3648;DHT22;1840;48.892;15.312;2022-07-06T09:34:04;19.00;94.20
3648;DHT22;1840;48.892;15.312;2022-07-06T09:36:42;19.00;93.10
3648;DHT22;1840;48.892;15.312;2022-07-06T09:39:19;19.10;92.40
3648;DHT22;1840;48.892;15.312;2022-07-06T09:41:48;19.10;93.10
3648;DHT22;1840;48.892;15.312;2022-07-06T09:44:24;19.00;92.90
3648;DHT22;1840;48.892;15.312;2022-07-06T09:46:56;19.00;92.50
3648;DHT22;1840;48.892;15.312;2022-07-06T09:49:25;19.00;92.80
3648;DHT22;1840;48.892;15.312;2022-07-06T09:51:55;19.10;92.60
3648;DHT22;1840;48.892;15.312;2022-07-06T09:54:24;19.20;92.70
3648;DHT22;1840;48.892;15.312;2022-07-06T09:56:54;19.20;91.60
3648;DHT22;1840;48.892;15.312;2022-07-06T09:59:24;19.30;92.00
3648;DHT22;1840;48.892;15.312;2022-07-06T10:01:56;19.20;91.40
3648;DHT22;1840;48.892;15.312;2022-07-06T10:04:25;19.40;91.40
3648;DHT22;1840;48.892;15.312;2022-07-06T10:06:54;19.50;91.50
3648;DHT22;1840;48.892;15.312;2022-07-06T10:09:25;19.50;91.90
3648;DHT22;1840;48.892;15.312;2022-07-06T10:11:54;19.60;91.20
3648;DHT22;1840;48.892;15.312;2022-07-06T10:14:24;19.70;91.80
3648;DHT22;1840;48.892;15.312;2022-07-06T10:16:55;19.80;90.10
3648;DHT22;1840;48.892;15.312;2022-07-06T10:19:25;19.80;90.80
3648;DHT22;1840;48.892;15.312;2022-07-06T10:21:53;19.70;90.80
3648;DHT22;1840;48.892;15.312;2022-07-06T10:24:21;19.80;91.10
3648;DHT22;1840;48.892;15.312;2022-07-06T10:26:50;19.60;90.60
3648;DHT22;1840;48.892;15.312;2022-07-06T10:29:19;19.60;90.80
3648;DHT22;1840;48.892;15.312;2022-07-06T10:31:48;19.70;90.50
3648;DHT22;1840;48.892;15.312;2022-07-06T10:34:19;19.60;91.10
3648;DHT22;1840;48.892;15.312;2022-07-06T10:36:50;19.40;90.10
3648;DHT22;1840;48.892;15.312;2022-07-06T10:39:32;19.20;90.40
3648;DHT22;1840;48.892;15.312;2022-07-06T10:42:40;19.20;89.90
3648;DHT22;1840;48.892;15.312;2022-07-06T10:45:10;19.40;88.90
3648;DHT22;1840;48.892;15.312;2022-07-06T10:47:40;19.50;89.00
3648;DHT22;1840;48.892;15.312;2022-07-06T10:50:10;19.50;85.80
3648;DHT22;1840;48.892;15.312;2022-07-06T10:52:51;19.50;88.00
3648;DHT22;1840;48.892;15.312;2022-07-06T10:55:30;19.60;86.50
3648;DHT22;1840;48.892;15.312;2022-07-06T10:57:58;19.70;87.40
3648;DHT22;1840;48.892;15.312;2022-07-06T11:00:48;19.90;87.90
3648;DHT22;1840;48.892;15.312;2022-07-06T11:03:37;20.00;86.50
3648;DHT22;1840;48.892;15.312;2022-07-06T11:06:08;20.00;84.40
3648;DHT22;1840;48.892;15.312;2022-07-06T11:08:54;20.00;86.50
3648;DHT22;1840;48.892;15.312;2022-07-06T11:11:25;20.20;86.10
3648;DHT22;1840;48.892;15.312;2022-07-06T11:13:58;20.20;87.40
3648;DHT22;1840;48.892;15.312;2022-07-06T11:16:29;20.10;82.90
3648;DHT22;1840;48.892;15.312;2022-07-06T11:19:03;20.20;88.60
3648;DHT22;1840;48.892;15.312;2022-07-06T11:21:36;20.40;87.30
3648;DHT22;1840;48.892;15.312;2022-07-06T11:24:06;20.50;87.30
3648;DHT22;1840;48.892;15.312;2022-07-06T11:26:35;20.30;87.70
3648;DHT22;1840;48.892;15.312;2022-07-06T11:29:08;20.30;87.70
3648;DHT22;1840;48.892;15.312;2022-07-06T11:31:37;20.30;86.90
3648;DHT22;1840;48.892;15.312;2022-07-06T11:34:07;20.30;87.50
3648;DHT22;1840;48.892;15.312;2022-07-06T11:36:38;20.20;89.10
3648;DHT22;1840;48.892;15.312;2022-07-06T11:39:12;20.30;87.90
3648;DHT22;1840;48.892;15.312;2022-07-06T11:41:41;20.40;87.30
3648;DHT22;1840;48.892;15.312;2022-07-06T11:44:17;20.60;87.20
3648;DHT22;1840;48.892;15.312;2022-07-06T11:46:46;20.60;84.20
3648;DHT22;1840;48.892;15.312;2022-07-06T11:49:15;19.90;85.00
3648;DHT22;1840;48.892;15.312;2022-07-06T11:51:45;19.60;86.50
3648;DHT22;1840;48.892;15.312;2022-07-06T11:54:15;19.50;86.40
3648;DHT22;1840;48.892;15.312;2022-07-06T11:56:48;19.50;86.80
3648;DHT22;1840;48.892;15.312;2022-07-06T11:59:21;19.50;86.50
3648;DHT22;1840;48.892;15.312;2022-07-06T12:01:56;19.60;87.10
3648;DHT22;1840;48.892;15.312;2022-07-06T12:04:25;19.90;87.10
3648;DHT22;1840;48.892;15.312;2022-07-06T12:06:55;19.90;88.80
3648;DHT22;1840;48.892;15.312;2022-07-06T12:09:23;20.00;88.20
3648;DHT22;1840;48.892;15.312;2022-07-06T12:11:51;20.00;87.80
3648;DHT22;1840;48.892;15.312;2022-07-06T12:14:21;20.10;86.60
3648;DHT22;1840;48.892;15.312;2022-07-06T12:16:50;20.10;84.10
3648;DHT22;1840;48.892;15.312;2022-07-06T12:19:21;20.00;83.90
3648;DHT22;1840;48.892;15.312;2022-07-06T12:21:50;20.00;83.90
3648;DHT22;1840;48.892;15.312;2022-07-06T12:24:22;20.00;83.90
3648;DHT22;1840;48.892;15.312;2022-07-06T12:26:51;20.10;84.40
3648;DHT22;1840;48.892;15.312;2022-07-06T12:29:20;20.30;83.00
3648;DHT22;1840;48.892;15.312;2022-07-06T12:31:50;20.40;81.10
3648;DHT22;1840;48.892;15.312;2022-07-06T12:34:21;20.40;82.20
3648;DHT22;1840;48.892;15.312;2022-07-06T12:36:51;20.60;80.70
3648;DHT22;1840;48.892;15.312;2022-07-06T12:39:23;21.00;82.70
3648;DHT22;1840;48.892;15.312;2022-07-06T12:41:53;20.90;82.80
3648;DHT22;1840;48.892;15.312;2022-07-06T12:44:24;20.60;82.00
3648;DHT22;1840;48.892;15.312;2022-07-06T12:47:02;20.50;81.90
3648;DHT22;1840;48.892;15.312;2022-07-06T12:49:32;20.30;80.00
3648;DHT22;1840;48.892;15.312;2022-07-06T12:52:02;20.40;85.40
3648;DHT22;1840;48.892;15.312;2022-07-06T12:54:41;20.50;86.90
3648;DHT22;1840;48.892;15.312;2022-07-06T12:57:12;20.50;87.90
3648;DHT22;1840;48.892;15.312;2022-07-06T12:59:43;20.50;86.10
3648;DHT22;1840;48.892;15.312;2022-07-06T13:02:20;20.30;86.30
3648;DHT22;1840;48.892;15.312;2022-07-06T13:05:12;20.20;85.70
3648;DHT22;1840;48.892;15.312;2022-07-06T13:07:44;20.00;83.60
3648;DHT22;1840;48.892;15.312;2022-07-06T13:10:16;20.00;85.90
3648;DHT22;1840;48.892;15.312;2022-07-06T13:12:44;19.90;84.50
3648;DHT22;1840;48.892;15.312;2022-07-06T13:15:13;19.90;83.90
3648;DHT22;1840;48.892;15.312;2022-07-06T13:17:41;19.80;82.00
3648;DHT22;1840;48.892;15.312;2022-07-06T13:20:13;19.90;83.30
3648;DHT22;1840;48.892;15.312;2022-07-06T13:22:43;20.00;83.50
3648;DHT22;1840;48.892;15.312;2022-07-06T13:25:11;20.20;83.50
3648;DHT22;1840;48.892;15.312;2022-07-06T13:27:41;20.60;83.70
3648;DHT22;1840;48.892;15.312;2022-07-06T13:30:11;20.80;83.90
3648;DHT22;1840;48.892;15.312;2022-07-06T13:32:39;20.90;82.90
3648;DHT22;1840;48.892;15.312;2022-07-06T13:35:08;20.90;83.60
3648;DHT22;1840;48.892;15.312;2022-07-06T13:37:36;21.10;80.80
3648;DHT22;1840;48.892;15.312;2022-07-06T13:40:06;20.80;78.30
3648;DHT22;1840;48.892;15.312;2022-07-06T13:42:34;20.50;79.70
3648;DHT22;1840;48.892;15.312;2022-07-06T13:45:05;20.70;82.00
3648;DHT22;1840;48.892;15.312;2022-07-06T13:47:33;20.70;81.30
3648;DHT22;1840;48.892;15.312;2022-07-06T13:50:02;20.70;81.90
3648;DHT22;1840;48.892;15.312;2022-07-06T13:52:30;20.60;81.60
3648;DHT22;1840;48.892;15.312;2022-07-06T13:54:59;20.60;84.10
3648;DHT22;1840;48.892;15.312;2022-07-06T13:57:28;20.50;83.20
3648;DHT22;1840;48.892;15.312;2022-07-06T13:59:57;20.30;81.30
3648;DHT22;1840;48.892;15.312;2022-07-06T14:02:26;20.00;78.90
3648;DHT22;1840;48.892;15.312;2022-07-06T14:04:55;19.80;80.10
3648;DHT22;1840;48.892;15.312;2022-07-06T14:07:23;19.70;83.10
3648;DHT22;1840;48.892;15.312;2022-07-06T14:09:51;19.90;80.10
3648;DHT22;1840;48.892;15.312;2022-07-06T14:12:20;20.20;82.60
3648;DHT22;1840;48.892;15.312;2022-07-06T14:14:50;20.40;82.00
3648;DHT22;1840;48.892;15.312;2022-07-06T14:17:19;20.40;83.50
3648;DHT22;1840;48.892;15.312;2022-07-06T14:19:49;20.60;83.20
3648;DHT22;1840;48.892;15.312;2022-07-06T14:22:18;20.70;81.40
3648;DHT22;1840;48.892;15.312;2022-07-06T14:24:46;21.00;82.90
3648;DHT22;1840;48.892;15.312;2022-07-06T14:27:15;21.00;82.00
3648;DHT22;1840;48.892;15.312;2022-07-06T14:29:44;21.10;82.70
3648;DHT22;1840;48.892;15.312;2022-07-06T14:32:15;21.00;82.40
3648;DHT22;1840;48.892;15.312;2022-07-06T14:34:44;20.80;81.20
3648;DHT22;1840;48.892;15.312;2022-07-06T14:37:14;20.70;81.80
3648;DHT22;1840;48.892;15.312;2022-07-06T14:39:46;20.60;82.30
3648;DHT22;1840;48.892;15.312;2022-07-06T14:42:17;20.60;80.20
3648;DHT22;1840;48.892;15.312;2022-07-06T14:44:47;20.60;78.70
3648;DHT22;1840;48.892;15.312;2022-07-06T14:47:16;20.40;78.80
3648;DHT22;1840;48.892;15.312;2022-07-06T14:49:45;20.30;80.10
3648;DHT22;1840;48.892;15.312;2022-07-06T14:52:16;20.20;80.40
3648;DHT22;1840;48.892;15.312;2022-07-06T14:54:45;20.30;83.20
3648;DHT22;1840;48.892;15.312;2022-07-06T14:57:14;20.50;82.60
3648;DHT22;1840;48.892;15.312;2022-07-06T14:59:44;20.50;83.20
3648;DHT22;1840;48.892;15.312;2022-07-06T15:02:13;20.40;82.60
3648;DHT22;1840;48.892;15.312;2022-07-06T15:04:42;20.40;85.40
3648;DHT22;1840;48.892;15.312;2022-07-06T15:07:10;20.30;83.30
3648;DHT22;1840;48.892;15.312;2022-07-06T15:09:40;20.30;80.20
3648;DHT22;1840;48.892;15.312;2022-07-06T15:12:09;20.20;85.00
3648;DHT22;1840;48.892;15.312;2022-07-06T15:14:37;20.30;83.60
3648;DHT22;1840;48.892;15.312;2022-07-06T15:17:05;20.50;83.50
3648;DHT22;1840;48.892;15.312;2022-07-06T15:19:34;20.50;87.00
3648;DHT22;1840;48.892;15.312;2022-07-06T15:22:03;20.90;82.30
3648;DHT22;1840;48.892;15.312;2022-07-06T15:24:31;20.90;82.30
3648;DHT22;1840;48.892;15.312;2022-07-06T15:27:01;20.70;81.10
3648;DHT22;1840;48.892;15.312;2022-07-06T15:29:30;20.50;81.60
3648;DHT22;1840;48.892;15.312;2022-07-06T15:31:59;20.30;80.80
3648;DHT22;1840;48.892;15.312;2022-07-06T15:34:27;20.20;80.30
3648;DHT22;1840;48.892;15.312;2022-07-06T15:36:56;20.10;81.50
3648;DHT22;1840;48.892;15.312;2022-07-06T15:39:24;20.20;82.90
3648;DHT22;1840;48.892;15.312;2022-07-06T15:41:52;20.30;83.70
3648;DHT22;1840;48.892;15.312;2022-07-06T15:44:22;20.30;84.00
3648;DHT22;1840;48.892;15.312;2022-07-06T15:46:50;20.50;84.00
3648;DHT22;1840;48.892;15.312;2022-07-06T15:49:18;20.90;82.70
3648;DHT22;1840;48.892;15.312;2022-07-06T15:51:46;21.40;84.10
3648;DHT22;1840;48.892;15.312;2022-07-06T15:54:15;21.80;80.00
3648;DHT22;1840;48.892;15.312;2022-07-06T15:56:45;22.20;77.70
3648;DHT22;1840;48.892;15.312;2022-07-06T15:59:13;22.60;79.20
3648;DHT22;1840;48.892;15.312;2022-07-06T16:01:42;23.30;76.60